Here is the Quick Look data you requested

The Data originates at the National Weather Service, and is made available here by the UAlbany Department of Atmospheric and Environmental Sciences

Surface Observations

KCVG 230952Z 21006KT 10SM BKN085 BKN250 22/18 A3007 RMK AO2 SLP173 T02170178=
KCVG 231052Z 22008KT 10SM FEW060TCU SCT095 OVC250 22/18 A3008 RMK AO2 SLP177
 TCU SE T02170178=
KCVG 231140Z 20009KT 10SM VCTS FEW065 SCT150 OVC250 22/18 A3009 RMK AO2 LTG
 DSNT N AND NW CB DSNT NW T02220178=
KCVG 231152Z 21012KT 10SM TS FEW055CB SCT140 OVC210 22/18 A3010 RMK AO2 LTG
 DSNT N AND NW TSB52 SLP184 OCNL LTGIC NW TS NW-N MOV NE 70006 T02220178 10222
 20200 53015=
KCVG 231233Z 31018G31KT 6SM R18C/4500VP6000FT -TSRA SCT024 SCT033 OVC047CB
 20/17 A3018 RMK AO2 PK WND 31032/1223 WSHFT 1213 LTG DSNT W-NE RAB27 OCNL
 LTGICCC NW N TS W-N MOV NE P0001
KCVG 231236Z 32021G27KT 1/2SM R18C/2200VP6000FT TSRA BR SCT020 OVC035CB 19/17
 A3018 RMK AO2 PK WND 31032/1223 WSHFT 1213 SFC VIS 1 LTG DSNT ALQDS RAB27 OCNL
 LTGICCC NW N TS W-N MOV NE
KCVG 231240Z 31019G27KT 3SM R18C/2200VP6000FT TSRA BR SCT018 BKN028 OVC046CB
 19/17 A3018 RMK AO2 PK WND 31032/1223 WSHFT 1213 TWR VIS 4 LTG DSNT ALQDS
 RAB27 FRQ LTGICCC NW N TS W-N
KCVG 231252Z 29011KT 4SM -TSRA BR FEW014 BKN041CB OVC070 19/18 A3019 RMK AO2 PK
 WND 31032/1223 WSHFT 1213 LTG DSNT ALQDS RAB27 SLP215 VIS S 21/2 OCNL LTGIC
 W-N TS N-NE MOV NE P0015
KCVG 231303Z 29008KT 5SM -TSRA BR FEW014 BKN065CB OVC085 19/18 A3019 RMK AO2
 LTG DSNT ALQDS OCNL LTGIC NE-E TS E-SE MOV NE P0003 T01940178 $=
KCVG 231326Z 27006KT 5SM -RA BR FEW060 BKN085 OVC110 19/17 A3019 RMK AO2 LTG
 DSNT SE AND S TSE24 MOV E P0006 T01890172 $=
KCVG 231352Z 16006KT 7SM -RA FEW070 SCT085 OVC110 19/18 A3016 RMK AO2 LTG DSNT
 SE TSE24 PRESFR SLP203 MOV E P0010 T01940178=
KCVG 231452Z 18006KT 10SM SCT095 BKN120 OVC150 20/18 A3014 RMK AO2 LTG DSNT W
 RAE23 SLP198 P0001 60026 T02000178 50011=
KCVG 231519Z 19010KT 6SM -TSRA BR FEW055CB BKN100 OVC120 20/18 A3014 RMK AO2
 LTG DSNT SW RAB09 TSB18 PRESFR VIS LWR S OCNL LTGIC SW TS SW MOV E P0001
 T02000178=
KCVG 231540Z 19010KT 10SM VCTS FEW014 FEW055 BKN110 OVC130 19/18 A3015 RMK AO2
 LTG DSNT E-SW RAB09E37 TSB18 TS MOV ESE P0001 T01940178=
KCVG 231552Z 18009KT 10SM FEW016 BKN110 OVC140 20/18 A3013 RMK AO2 LTG DSNT SE
 AND S PRESFR SLP194 RAB09E37 TSB18E38 TS MOV ESE P0001 T02000178=
KCVG 231652Z 19011KT 10SM SCT110 OVC150 21/19 A3012 RMK AO2 SLP191 T02110189=
KCVG 231752Z 20009KT 10SM FEW200 BKN250 25/21 A3010 RMK AO2 SLP183 60027
 T02500206 10250 20189 58012=
KCVG 231852Z 22013G18KT 10SM FEW026 SCT034 BKN250 27/21 A3009 RMK AO2 SLP180
 SCT V BKN T02720211=
KCVG 231952Z 22010KT 10SM FEW035 FEW200 SCT250 29/22 A3006 RMK AO2 LTG DSNT S
 AND SW SLP170 CB DSNT S-SW T02890217=
KCVG 232024Z 20013KT 10SM TS SCT045CB SCT140 BKN200 BKN250 28/21 A3006 RMK AO2
 LTG DSNT S AND SW TSB24 OCNL LTGICCG SW TS SW MOV E CB DSNT SE-S T02830211=
KCVG 232038Z 21020G32KT 2SM R18C/4000VP6000FT +TSRA FEW032 BKN046CB BKN075
 OVC200 26/21 A3006 RMK AO2 PK WND 21032/2037 LTG DSNT S RAB30 TSB24 OCNL
 LTGICCG OHD-SW TS OHD-S-W MOV E
KCVG 232045Z 22012G32KT 7SM R18C/2200VP6000FT -TSRA SCT021 BKN043CB BKN075
 OVC200 24/20 A3005 RMK AO2 PK WND 21032/2037 LTG DSNT SE-W RAB30 TSB24 VIS
 NE-E 2 1/2 OCNL LTGICCG OHD-E
KCVG 232052Z 20012G26KT 9SM R18C/6000VP6000FT -TSRA SCT019 BKN036CB BKN075
 OVC200 24/19 A3006 RMK AO2 PK WND 21032/2037 LTG DSNT SE-W RAB30 TSB24 SLP171
 FRQ LTGICCG NE-E TS NE-SE
KCVG 232136Z 29018G25KT 2SM R18C/2000VP6000FT +TSRA FEW025 BKN044CB BKN100
 OVC200 23/19 A3010 RMK AO2 LTG DSNT E PRESRR FRQ LTGICCG W-NW TS OHD-W-NW MOV
 E CB DSNT NE P0016
KCVG 232141Z 28018G29KT 1 1/4SM R18C/2000V5000FT +TSRA BKN034CB BKN075 OVC110
 22/19 A3011 RMK AO2 PK WND 28029/2141 LTG DSNT E PRESRR FRQ LTGICCG W-NW TS
 OHD-W-NW MOV E CB DSNT NE P0024
KCVG 232145Z 18016G31KT 3/4SM R18C/1800V4500FT +TSRA BKN034CB BKN075 OVC110
 22/19 A3009 RMK AO2 PK WND 17031/2144 WSHFT 2130 LTG DSNT E FRQ LTGICCG ALQDS
 TS ALQDS MOV E P0047
KCVG 232152Z VRB06G31KT 7SM R18C/1800VP6000FT -TSRA SCT018 BKN034CB BKN075
 OVC200 22/20 A3006 RMK AO2 PK WND 17031/2144 WSHFT 2130 LTG DSNT E SLP171 VIS
 E-S 1 1/2 FRQ LTGICCG E-S TS
KCVG 232230Z 17005KT 10SM FEW035 SCT100 OVC200 24/21 A3007 RMK AO2 LTG DSNT E-S
 RAE05 TSE30 TS MOV E CB DSNT NE-E TCU DSNT W P0003 T02440211=
KCVG 232238Z 19003KT 10SM TS FEW035CB SCT100 BKN200 24/21 A3007 RMK AO2 LTG
 DSNT E RAE05 TSE30B38 OCNL LTGIC W TS W MOV E CB DSNT NE-E P0003 T02440211=
KCVG 232252Z 10003KT 9SM R18C/2600VP6000FT -TSRA FEW037CB FEW050 BKN095 OVC220
 24/21 A3007 RMK AO2 LTG DSNT E RAE05B47 TSE30B38 SLP172 VIS LWR N-NE FRQ
 LTGCGIC N TS N-NE MOV E
KCVG 232317Z 19006KT 10SM FEW045 SCT110 BKN250 26/22 A3007 RMK AO2 RAE2257
 TSE16 TS MOV E CB DSNT E TCU DSNT SW P0001 T02560217=
KCVG 232352Z 22005KT 10SM FEW044TCU SCT200 SCT250 26/22 A3006 RMK AO2 RAE2257
 TSE16 SLP170 TS MOV E TCU SE DSNT NE SW-W P0001 60108 T02560217 10294 20217
 57001=
KCVG 240052Z 20006KT 10SM FEW039 FEW250 24/21 A3007 RMK AO2 SLP172 MDT CU DSNT
 SE T02390206=
KCVG 240152Z 23006KT 10SM FEW250 23/21 A3008 RMK AO2 SLP177 T02330206=
KCVG 240252Z 21003KT 9SM CLR 23/21 A3010 RMK AO2 SLP183 T02280206 53012=
KCVG 240352Z 26004KT 9SM CLR 23/21 A3010 RMK AO2 SLP183 T02280206=
KCVG 240452Z 23004KT 8SM BKN065 22/21 A3009 RMK AO2 SLP181 T02220206 402940189=
KCVG 240552Z 28004KT 9SM SCT065 22/20 A3009 RMK AO2 SLP180 T02220200 10256
 20217 57002=
KCVG 240652Z 00000KT 5SM BR FEW040 FEW060 21/20 A3009 RMK AO2 SLP180 T02110200=
KCVG 240752Z 00000KT 5SM R18C/4000VP6000FT BR SCT020 20/19 A3009 RMK AO2 SLP179
 T02000194=
KCVG 240852Z 00000KT 5SM BR FEW020 FEW065 20/19 A3010 RMK AO2 SLP184 PTCHY FOG
 ON FIELD VIS IN FOG 3/4 T02000189 53003=
KCVG 240952Z 00000KT 8SM FEW022 BKN055 BKN070 20/19 A3012 RMK AO2 SLP189
 T02000189=